createdAt,value
2023-03-17T00:02:08.588Z,100752.63
2023-03-17T00:04:36.752Z,100746.50
2023-03-17T00:07:06.329Z,100751.69
2023-03-17T00:09:34.080Z,100756.13
2023-03-17T00:12:03.764Z,100752.59
2023-03-17T00:14:32.412Z,100754.22
2023-03-17T00:17:00.142Z,100756.78
2023-03-17T00:19:31.283Z,100747.13
2023-03-17T00:22:01.103Z,100762.78
2023-03-17T00:24:29.982Z,100748.63
2023-03-17T00:26:58.879Z,100753.88
2023-03-17T00:29:28.145Z,100742.47
2023-03-17T00:31:58.429Z,100745.91
2023-03-17T00:34:27.259Z,100735.41
2023-03-17T00:36:56.120Z,100740.66
2023-03-17T00:39:25.599Z,100727.50
2023-03-17T00:41:55.780Z,100728.41
2023-03-17T00:44:24.237Z,100725.84
2023-03-17T00:46:55.113Z,100722.31
2023-03-17T00:49:27.501Z,100717.00
2023-03-17T00:51:56.160Z,100718.72
2023-03-17T00:54:24.185Z,100718.72
2023-03-17T00:56:53.653Z,100716.09
2023-03-17T00:59:28.908Z,100716.09
2023-03-17T01:01:58.845Z,100716.09
2023-03-17T01:04:26.751Z,100705.63
2023-03-17T01:06:55.590Z,100706.50
2023-03-17T01:09:27.436Z,100712.63
2023-03-17T01:11:58.183Z,100701.22
2023-03-17T01:14:26.748Z,100702.09
2023-03-17T01:16:55.302Z,100705.59
2023-03-17T01:19:25.563Z,100699.50
2023-03-17T01:21:53.592Z,100699.50
2023-03-17T01:24:21.773Z,100698.66
2023-03-17T01:26:52.252Z,100686.34
2023-03-17T01:29:20.269Z,100681.09
2023-03-17T01:31:48.374Z,100681.09
2023-03-17T01:34:16.563Z,100687.19
2023-03-17T01:36:46.886Z,100679.31
2023-03-17T01:39:18.373Z,100674.00
2023-03-17T01:41:47.168Z,100680.91
2023-03-17T01:44:19.509Z,100673.03
2023-03-17T01:46:47.752Z,100679.19
2023-03-17T01:49:27.734Z,100685.28
2023-03-17T01:52:01.905Z,100691.34
2023-03-17T01:54:35.730Z,100687.84
2023-03-17T01:57:09.386Z,100689.59
2023-03-17T01:59:43.677Z,100689.56
2023-03-17T02:02:13.895Z,100687.75
2023-03-17T02:04:41.939Z,100677.22
2023-03-17T02:07:12.592Z,100672.78
2023-03-17T02:09:42.790Z,100657.94
2023-03-17T02:12:12.120Z,100662.34
2023-03-17T02:14:40.004Z,100664.09
2023-03-17T02:17:08.823Z,100656.28
2023-03-17T02:19:37.651Z,100651.09
2023-03-17T02:22:07.456Z,100649.38
2023-03-17T02:24:41.854Z,100651.13
2023-03-17T02:27:14.712Z,100644.16
2023-03-17T02:29:46.244Z,100635.34
2023-03-17T02:32:15.112Z,100641.50
2023-03-17T02:34:42.940Z,100641.53
2023-03-17T02:37:12.324Z,100644.16
2023-03-17T02:39:40.251Z,100635.41
2023-03-17T02:42:08.629Z,100638.88
2023-03-17T02:44:36.482Z,100643.25
2023-03-17T02:47:05.088Z,100642.44
2023-03-17T02:49:34.213Z,100637.19
2023-03-17T02:52:02.644Z,100638.88
2023-03-17T02:54:32.379Z,100637.97
2023-03-17T02:57:01.153Z,100643.25
2023-03-17T02:59:29.550Z,100652.00
2023-03-17T03:01:57.413Z,100646.72
2023-03-17T03:04:26.313Z,100643.16
2023-03-17T03:06:54.770Z,100639.66
2023-03-17T03:09:22.698Z,100647.59
2023-03-17T03:11:52.351Z,100647.53
2023-03-17T03:14:20.827Z,100651.91
2023-03-17T03:16:48.683Z,100653.63
2023-03-17T03:19:16.813Z,100642.25
2023-03-17T03:21:47.368Z,100643.13
2023-03-17T03:24:15.524Z,100631.03
2023-03-17T03:26:43.988Z,100628.41
2023-03-17T03:29:13.195Z,100622.31
2023-03-17T03:31:41.694Z,100630.19
2023-03-17T03:34:10.197Z,100635.34
2023-03-17T03:36:38.088Z,100635.34
2023-03-17T03:39:08.101Z,100631.03
2023-03-17T03:41:36.411Z,100622.25
2023-03-17T03:44:04.416Z,100619.63
2023-03-17T03:46:33.884Z,100629.28
2023-03-17T03:49:02.212Z,100610.03
2023-03-17T03:51:29.972Z,100620.47
2023-03-17T03:53:57.853Z,100620.44
2023-03-17T03:56:26.140Z,100612.56
2023-03-17T03:58:54.108Z,100612.56
2023-03-17T04:01:21.980Z,100610.00
2023-03-17T04:03:52.151Z,100617.84
2023-03-17T04:06:20.294Z,100624.81
2023-03-17T04:08:48.350Z,100635.31
2023-03-17T04:11:17.793Z,100630.00
2023-03-17T04:13:46.079Z,100624.75
2023-03-17T04:16:14.281Z,100614.22
2023-03-17T04:18:42.422Z,100618.59
2023-03-17T04:21:12.562Z,100614.22
2023-03-17T04:23:40.658Z,100614.16
2023-03-17T04:26:10.007Z,100611.56
2023-03-17T04:28:38.015Z,100616.88
2023-03-17T04:31:06.850Z,100602.88
2023-03-17T04:33:34.603Z,100601.09
2023-03-17T04:36:04.102Z,100604.50
2023-03-17T04:38:34.169Z,100607.03
2023-03-17T04:41:02.674Z,100611.41
2023-03-17T04:43:33.952Z,100596.47
2023-03-17T04:46:01.717Z,100608.69
2023-03-17T04:48:32.605Z,100618.25
2023-03-17T04:51:01.604Z,100623.41
2023-03-17T04:53:29.622Z,100618.13
2023-03-17T04:55:58.765Z,100625.06
2023-03-17T04:58:30.874Z,100622.38
2023-03-17T05:00:59.704Z,100637.25
2023-03-17T05:03:28.503Z,100628.44
2023-03-17T05:05:58.997Z,100631.06
2023-03-17T05:08:28.741Z,100628.44
2023-03-17T05:10:59.705Z,100614.47
2023-03-17T05:13:32.863Z,100603.94
2023-03-17T05:16:01.539Z,100617.88
2023-03-17T05:18:30.824Z,100617.00
2023-03-17T05:20:58.992Z,100617.78
2023-03-17T05:23:26.858Z,100623.84
2023-03-17T05:25:54.759Z,100616.78
2023-03-17T05:28:26.749Z,100614.22
2023-03-17T05:30:54.698Z,100616.84
2023-03-17T05:33:23.081Z,100608.09
2023-03-17T05:35:51.442Z,100604.56
2023-03-17T05:38:19.391Z,100601.13
2023-03-17T05:40:49.935Z,100605.44
2023-03-17T05:43:17.960Z,100608.06
2023-03-17T05:45:48.158Z,100601.84
2023-03-17T05:48:15.965Z,100604.47
2023-03-17T05:50:46.024Z,100595.72
2023-03-17T05:53:14.230Z,100587.88
2023-03-17T05:55:42.331Z,100580.88
2023-03-17T05:58:10.315Z,100572.13
2023-03-17T06:00:40.669Z,100584.31
2023-03-17T06:03:14.994Z,100575.63
2023-03-17T06:05:43.150Z,100580.00
2023-03-17T06:08:11.272Z,100576.50
2023-03-17T06:10:39.188Z,100585.25
2023-03-17T06:13:07.036Z,100585.34
2023-03-17T06:15:36.334Z,100579.25
2023-03-17T06:18:05.709Z,100582.81
2023-03-17T06:20:36.848Z,100584.56
2023-03-17T06:23:06.937Z,100573.31
2023-03-17T06:25:35.600Z,100555.81
2023-03-17T06:28:04.271Z,100556.78
2023-03-17T06:30:32.927Z,100575.25
2023-03-17T06:33:01.211Z,100584.03
2023-03-17T06:35:29.889Z,100586.69
2023-03-17T06:38:00.844Z,100576.25
2023-03-17T06:40:30.611Z,100586.84
2023-03-17T06:42:58.614Z,100568.56
2023-03-17T06:45:27.184Z,100567.72
2023-03-17T06:47:58.285Z,100557.31
2023-03-17T06:50:27.521Z,100556.56
2023-03-17T06:52:56.027Z,100565.41
2023-03-17T06:55:25.243Z,100571.56
2023-03-17T06:57:54.553Z,100576.94
2023-03-17T07:00:23.960Z,100576.16
2023-03-17T07:02:53.047Z,100577.19
2023-03-17T07:05:21.097Z,100579.06
2023-03-17T07:07:52.382Z,100585.41
2023-03-17T07:10:21.194Z,100575.09
2023-03-17T07:12:53.536Z,100574.41
2023-03-17T07:15:22.133Z,100581.47
2023-03-17T07:17:49.943Z,100586.03
2023-03-17T07:20:20.426Z,100582.66
2023-03-17T07:22:50.387Z,100585.44
2023-03-17T07:25:18.954Z,100592.63
2023-03-17T07:27:50.581Z,100598.06
2023-03-17T07:30:23.617Z,100580.78
2023-03-17T07:32:55.343Z,100574.81
2023-03-17T07:35:23.591Z,100564.50
2023-03-17T07:37:51.600Z,100558.50
2023-03-17T07:40:19.887Z,100560.50
2023-03-17T07:42:47.835Z,100571.22
2023-03-17T07:45:18.284Z,100575.75
2023-03-17T07:47:47.452Z,100581.22
2023-03-17T07:50:16.775Z,100575.25
2023-03-17T07:52:45.167Z,100576.28
2023-03-17T07:55:13.683Z,100573.81
2023-03-17T07:57:42.012Z,100568.75
2023-03-17T08:00:14.016Z,100560.19
2023-03-17T08:02:42.458Z,100543.69
2023-03-17T08:05:16.763Z,100546.44
2023-03-17T08:07:44.763Z,100556.22
2023-03-17T08:10:15.727Z,100556.41
2023-03-17T08:12:44.488Z,100554.75
2023-03-17T08:15:13.856Z,100554.91
2023-03-17T08:17:42.261Z,100553.28
2023-03-17T08:20:14.428Z,100549.94
2023-03-17T08:22:44.098Z,100548.38
2023-03-17T08:25:12.890Z,100531.00
2023-03-17T08:27:42.343Z,100530.25
2023-03-17T08:30:12.625Z,100539.19
2023-03-17T08:32:41.128Z,100526.19
2023-03-17T08:35:13.689Z,100526.34
2023-03-17T08:37:41.709Z,100533.59
2023-03-17T08:40:11.758Z,100524.97
2023-03-17T08:42:41.738Z,100529.50
2023-03-17T08:45:11.206Z,100518.19
2023-03-17T08:47:39.457Z,100534.22
2023-03-17T08:50:10.309Z,100533.53
2023-03-17T08:52:39.456Z,100524.00
2023-03-17T08:55:08.904Z,100530.31
2023-03-17T08:57:37.060Z,100530.38
2023-03-17T09:00:11.011Z,100526.03
2023-03-17T09:02:39.397Z,100529.63
2023-03-17T09:05:09.494Z,100534.09
2023-03-17T09:07:39.279Z,100530.66
2023-03-17T09:10:09.096Z,100539.59
2023-03-17T09:12:37.463Z,100531.72
2023-03-17T09:15:08.810Z,100535.31
2023-03-17T09:17:36.745Z,100530.97
2023-03-17T09:20:06.467Z,100531.91
2023-03-17T09:22:34.224Z,100520.47
2023-03-17T09:25:03.516Z,100533.78
2023-03-17T09:27:31.338Z,100526.75
2023-03-17T09:29:59.147Z,100521.47
2023-03-17T09:32:27.409Z,100518.84
2023-03-17T09:34:55.521Z,100517.97
2023-03-17T09:37:23.458Z,100516.25
2023-03-17T09:39:51.395Z,100513.59
2023-03-17T09:42:39.883Z,100521.50
2023-03-17T09:45:21.141Z,100522.38
2023-03-17T09:48:16.081Z,100518.78
2023-03-17T09:50:49.502Z,100513.47
2023-03-17T09:53:21.767Z,100501.94
2023-03-17T09:55:53.787Z,100504.56
2023-03-17T09:58:29.262Z,100505.38
2023-03-17T10:00:57.070Z,100492.88
2023-03-17T10:03:26.299Z,100485.69
2023-03-17T10:05:55.136Z,100493.53
2023-03-17T10:08:31.664Z,100490.78
2023-03-17T10:11:05.295Z,100485.31
2023-03-17T10:13:46.279Z,100476.34
2023-03-17T10:16:15.778Z,100476.31
2023-03-17T10:18:48.276Z,100464.75
2023-03-17T10:21:20.413Z,100469.13
2023-03-17T10:23:48.244Z,100457.56
2023-03-17T10:26:27.570Z,100449.47
2023-03-17T10:28:57.126Z,100457.34
2023-03-17T10:31:33.218Z,100452.78
2023-03-17T10:34:14.203Z,100442.94
2023-03-17T10:36:45.017Z,100452.59
2023-03-17T10:39:15.723Z,100448.94
2023-03-17T10:41:55.607Z,100447.97
2023-03-17T10:44:37.853Z,100454.03
2023-03-17T10:47:05.694Z,100451.25
2023-03-17T10:49:37.229Z,100444.09
2023-03-17T10:52:08.719Z,100453.78
2023-03-17T10:54:37.383Z,100451.00
2023-03-17T10:57:10.589Z,100444.63
2023-03-17T10:59:44.846Z,100450.66
2023-03-17T11:02:22.556Z,100452.50
2023-03-17T11:04:50.902Z,100444.53
2023-03-17T11:07:21.343Z,100458.78
2023-03-17T11:09:50.747Z,100456.16
2023-03-17T11:12:27.454Z,100459.66
2023-03-17T11:15:08.959Z,100453.31
2023-03-17T11:17:45.534Z,100453.22
2023-03-17T11:20:47.133Z,100447.69
2023-03-17T11:23:43.856Z,100440.41
2023-03-17T11:26:27.820Z,100431.31
2023-03-17T11:29:13.903Z,100431.13
2023-03-17T11:31:53.091Z,100431.91
2023-03-17T11:34:29.947Z,100418.41
2023-03-17T11:37:06.966Z,100419.19
2023-03-17T11:39:43.638Z,100420.91
2023-03-17T11:42:20.108Z,100413.75
2023-03-17T11:45:11.395Z,100409.19
2023-03-17T11:47:49.956Z,100413.50
2023-03-17T11:50:29.045Z,100408.97
2023-03-17T11:53:21.793Z,100407.03
2023-03-17T11:55:54.672Z,100408.66
2023-03-17T11:58:31.138Z,100396.06
2023-03-17T12:01:02.541Z,100404.75
2023-03-17T12:03:42.471Z,100392.00
2023-03-17T12:06:15.459Z,100406.88
2023-03-17T12:08:47.111Z,100395.25
2023-03-17T12:11:22.092Z,100406.75
2023-03-17T12:13:56.795Z,100393.38
2023-03-17T12:16:33.266Z,100404.97
2023-03-17T12:19:11.444Z,100395.16
2023-03-17T12:21:45.917Z,100407.59
2023-03-17T12:24:20.133Z,100391.53
2023-03-17T12:26:56.089Z,100398.69
2023-03-17T12:29:31.407Z,100406.75
2023-03-17T12:32:05.728Z,100397.91
2023-03-17T12:34:44.950Z,100402.25
2023-03-17T12:37:13.035Z,100400.41
2023-03-17T12:39:45.923Z,100398.69
2023-03-17T12:42:30.155Z,100395.00
2023-03-17T12:45:20.827Z,100393.94
2023-03-17T12:47:58.546Z,100388.38
2023-03-17T12:50:43.429Z,100390.00
2023-03-17T12:53:26.523Z,100392.69
2023-03-17T12:55:57.886Z,100384.56
2023-03-17T12:58:33.650Z,100385.34
2023-03-17T13:01:08.893Z,100388.00
2023-03-17T13:03:46.819Z,100385.25
2023-03-17T13:06:22.506Z,100382.47
2023-03-17T13:08:52.155Z,100384.06
2023-03-17T13:11:28.239Z,100383.09
2023-03-17T13:14:24.560Z,100373.19
2023-03-17T13:16:53.816Z,100371.28
2023-03-17T13:19:24.236Z,100365.00
2023-03-17T13:22:35.151Z,100367.66
2023-03-17T13:25:28.380Z,100350.75
2023-03-17T13:28:18.346Z,100352.59
2023-03-17T13:30:58.321Z,100343.78
2023-03-17T13:33:31.423Z,100347.44
2023-03-17T13:36:23.596Z,100341.25
2023-03-17T13:39:22.373Z,100350.25
2023-03-17T13:42:20.728Z,100332.50
2023-03-17T13:45:24.011Z,100344.16
2023-03-17T13:47:52.494Z,100336.97
2023-03-17T13:50:24.404Z,100337.81
2023-03-17T13:52:56.766Z,100346.78
2023-03-17T13:55:40.910Z,100341.47
2023-03-17T13:58:24.724Z,100341.66
2023-03-17T14:01:00.729Z,100339.13
2023-03-17T14:03:35.572Z,100350.69
2023-03-17T14:06:06.701Z,100337.31
2023-03-17T14:08:37.152Z,100337.31
2023-03-17T14:11:16.616Z,100347.19
2023-03-17T14:13:49.583Z,100344.50
2023-03-17T14:16:23.778Z,100341.03
2023-03-17T14:18:58.992Z,100334.00
2023-03-17T14:21:32.208Z,100326.16
2023-03-17T14:24:02.095Z,100320.94
2023-03-17T14:26:32.890Z,100319.28
2023-03-17T14:29:01.809Z,100315.75
2023-03-17T14:31:30.485Z,100307.84
2023-03-17T14:34:00.449Z,100315.00
2023-03-17T14:36:33.608Z,100308.84
2023-03-17T14:39:01.197Z,100299.09
2023-03-17T14:42:01.904Z,100296.41
2023-03-17T14:44:37.263Z,100299.13
2023-03-17T14:47:07.367Z,100292.94
2023-03-17T14:49:34.982Z,100284.06
2023-03-17T14:52:03.067Z,100286.78
2023-03-17T14:54:33.816Z,100293.09
2023-03-17T14:57:06.894Z,100293.13
2023-03-17T14:59:36.535Z,100287.84
2023-03-17T15:02:17.056Z,100291.44
2023-03-17T15:04:52.888Z,100296.81
2023-03-17T15:07:32.198Z,100295.91
2023-03-17T15:10:01.920Z,100298.59
2023-03-17T15:12:32.017Z,100290.59
2023-03-17T15:15:03.522Z,100287.88
2023-03-17T15:17:34.247Z,100285.19
2023-03-17T15:20:05.627Z,100283.44
2023-03-17T15:22:42.448Z,100286.97
2023-03-17T15:25:21.370Z,100283.41
2023-03-17T15:27:50.451Z,100284.34
2023-03-17T15:30:19.572Z,100278.16
2023-03-17T15:32:52.978Z,100273.72
2023-03-17T15:35:20.948Z,100272.94
2023-03-17T15:37:48.824Z,100275.63
2023-03-17T15:40:16.782Z,100267.69
2023-03-17T15:42:45.386Z,100258.88
2023-03-17T15:45:17.752Z,100262.53
2023-03-17T15:47:47.376Z,100264.44
2023-03-17T15:50:18.834Z,100261.88
2023-03-17T15:52:46.804Z,100260.19
2023-03-17T15:55:22.396Z,100259.41
2023-03-17T15:57:55.153Z,100264.81
2023-03-17T16:00:29.895Z,100264.94
2023-03-17T16:03:02.080Z,100255.22
2023-03-17T16:05:32.741Z,100251.75
2023-03-17T16:08:00.652Z,100250.03
2023-03-17T16:10:30.527Z,100254.56
2023-03-17T16:12:58.927Z,100252.00
2023-03-17T16:15:31.366Z,100245.88
2023-03-17T16:18:01.580Z,100253.06
2023-03-17T16:20:33.897Z,100254.94
2023-03-17T16:23:07.085Z,100256.78
2023-03-17T16:25:36.756Z,100251.56
2023-03-17T16:28:15.978Z,100250.72
2023-03-17T16:30:46.438Z,100247.28
2023-03-17T16:33:17.864Z,100250.06
2023-03-17T16:35:45.637Z,100238.59
2023-03-17T16:38:14.431Z,100237.81
2023-03-17T16:40:43.080Z,100233.44
2023-03-17T16:43:25.133Z,100232.66
2023-03-17T16:45:56.961Z,100232.78
2023-03-17T16:48:24.978Z,100231.94
2023-03-17T16:50:52.941Z,100221.38
2023-03-17T16:53:20.635Z,100233.00
2023-03-17T16:55:49.078Z,100225.09
2023-03-17T16:58:19.093Z,100226.06
2023-03-17T17:00:47.842Z,100222.56
2023-03-17T17:03:17.039Z,100221.75
2023-03-17T17:05:45.854Z,100218.28
2023-03-17T17:08:13.845Z,100217.47
2023-03-17T17:10:41.521Z,100218.41
2023-03-17T17:13:10.371Z,100226.53
2023-03-17T17:15:39.337Z,100222.13
2023-03-17T17:18:12.282Z,100222.25
2023-03-17T17:20:42.161Z,100217.84
2023-03-17T17:23:13.580Z,100221.50
2023-03-17T17:25:41.970Z,100220.66
2023-03-17T17:28:09.977Z,100226.94
2023-03-17T17:30:38.009Z,100229.66
2023-03-17T17:33:06.376Z,100233.25
2023-03-17T17:35:34.292Z,100237.78
2023-03-17T17:38:03.615Z,100229.00
2023-03-17T17:40:32.562Z,100229.97
2023-03-17T17:43:00.512Z,100235.34
2023-03-17T17:45:28.156Z,100236.28
2023-03-17T17:47:55.826Z,100231.88
2023-03-17T17:50:26.361Z,100237.31
2023-03-17T17:52:54.160Z,100231.13
2023-03-17T17:55:23.116Z,100232.13
2023-03-17T17:57:52.561Z,100230.41
2023-03-17T18:00:21.803Z,100225.19
2023-03-17T18:02:49.440Z,100220.81
2023-03-17T18:05:17.332Z,100226.19
2023-03-17T18:07:44.942Z,100220.94
2023-03-17T18:10:17.730Z,100223.69
2023-03-17T18:12:46.851Z,100232.59
2023-03-17T18:15:14.614Z,100225.56
2023-03-17T18:17:43.108Z,100226.53
2023-03-17T18:20:13.827Z,100230.09
2023-03-17T18:22:41.998Z,100225.72
2023-03-17T18:25:12.086Z,100225.78
2023-03-17T18:27:40.382Z,100228.47
2023-03-17T18:30:13.318Z,100232.09
2023-03-17T18:32:42.788Z,100221.50
2023-03-17T18:35:15.323Z,100233.06
2023-03-17T18:37:43.101Z,100231.31
2023-03-17T18:40:16.424Z,100231.38
2023-03-17T18:42:46.425Z,100239.44
2023-03-17T18:45:15.962Z,100234.13
2023-03-17T18:47:43.618Z,100224.47
2023-03-17T18:50:13.461Z,100220.06
2023-03-17T18:52:42.384Z,100226.31
2023-03-17T18:55:12.104Z,100225.47
2023-03-17T18:57:39.778Z,100218.38
2023-03-17T19:00:10.613Z,100218.41
2023-03-17T19:02:39.915Z,100223.72
2023-03-17T19:05:08.558Z,100220.19
2023-03-17T19:07:38.439Z,100222.84
2023-03-17T19:10:08.608Z,100216.69
2023-03-17T19:12:36.278Z,100222.88
2023-03-17T19:15:04.277Z,100229.09
2023-03-17T19:17:32.119Z,100230.84
2023-03-17T19:20:01.168Z,100236.19
2023-03-17T19:22:28.865Z,100233.59
2023-03-17T19:24:56.531Z,100218.56
2023-03-17T19:27:24.300Z,100227.44
2023-03-17T19:29:51.906Z,100227.47
2023-03-17T19:32:19.554Z,100228.38
2023-03-17T19:34:47.749Z,100219.53
2023-03-17T19:37:16.839Z,100221.31
2023-03-17T19:39:45.217Z,100223.13
2023-03-17T19:42:13.226Z,100229.31
2023-03-17T19:44:41.212Z,100227.59
2023-03-17T19:47:08.960Z,100217.91
2023-03-17T19:49:37.476Z,100223.25
2023-03-17T19:52:05.375Z,100229.44
2023-03-17T19:54:34.571Z,100227.72
2023-03-17T19:57:02.224Z,100223.31
2023-03-17T19:59:29.874Z,100232.19
2023-03-17T20:01:58.467Z,100234.00
2023-03-17T20:04:26.187Z,100236.66
2023-03-17T20:06:55.702Z,100230.50
2023-03-17T20:09:24.653Z,100226.06
2023-03-17T20:11:54.370Z,100228.72
2023-03-17T20:14:22.283Z,100225.22
2023-03-17T20:16:50.671Z,100219.06
2023-03-17T20:19:18.484Z,100222.59
2023-03-17T20:21:46.479Z,100214.63
2023-03-17T20:24:14.814Z,100213.78
2023-03-17T20:26:44.634Z,100227.97
2023-03-17T20:29:14.439Z,100228.00
2023-03-17T20:31:43.893Z,100232.44
2023-03-17T20:34:11.740Z,100227.22
2023-03-17T20:36:42.443Z,100234.31
2023-03-17T20:39:13.702Z,100221.94
2023-03-17T20:41:41.897Z,100220.22
2023-03-17T20:44:09.842Z,100216.72
2023-03-17T20:46:38.934Z,100229.09
2023-03-17T20:49:07.426Z,100222.94
2023-03-17T20:51:35.111Z,100225.59
2023-03-17T20:54:03.305Z,100225.63
2023-03-17T20:56:33.809Z,100214.16
2023-03-17T20:59:04.911Z,100221.25
2023-03-17T21:01:34.835Z,100218.66
2023-03-17T21:04:05.813Z,100217.78
2023-03-17T21:06:34.309Z,100221.31
2023-03-17T21:09:02.467Z,100211.63
2023-03-17T21:11:30.681Z,100211.63
2023-03-17T21:13:58.696Z,100207.22
2023-03-17T21:16:29.838Z,100218.69
2023-03-17T21:18:57.740Z,100215.16
2023-03-17T21:21:27.335Z,100201.91
2023-03-17T21:23:55.400Z,100211.63
2023-03-17T21:26:24.645Z,100213.41
2023-03-17T21:28:52.603Z,100216.94
2023-03-17T21:31:20.305Z,100204.56
2023-03-17T21:33:50.515Z,100209.00
2023-03-17T21:36:20.834Z,100208.13
2023-03-17T21:38:49.928Z,100204.59
2023-03-17T21:41:23.770Z,100209.91
2023-03-17T21:43:51.488Z,100206.34
2023-03-17T21:46:19.151Z,100211.66
2023-03-17T21:48:46.851Z,100210.78
2023-03-17T21:51:14.564Z,100206.34
2023-03-17T21:53:42.148Z,100213.44
2023-03-17T21:56:12.642Z,100213.44
2023-03-17T21:58:40.615Z,100209.91
2023-03-17T22:01:09.177Z,100216.94
2023-03-17T22:03:39.570Z,100211.66
2023-03-17T22:06:08.281Z,100204.63
2023-03-17T22:08:36.260Z,100197.53
2023-03-17T22:11:08.102Z,100206.41
2023-03-17T22:13:37.728Z,100194.03
2023-03-17T22:16:06.150Z,100194.06
2023-03-17T22:18:33.960Z,100199.38
2023-03-17T22:21:01.789Z,100194.94
2023-03-17T22:23:30.335Z,100185.28
2023-03-17T22:25:58.545Z,100184.41
2023-03-17T22:28:26.471Z,100187.06
2023-03-17T22:30:56.099Z,100186.19
2023-03-17T22:33:23.783Z,100191.47
2023-03-17T22:35:51.518Z,100191.47
2023-03-17T22:38:19.200Z,100199.41
2023-03-17T22:40:46.841Z,100195.88
2023-03-17T22:43:14.607Z,100191.47
2023-03-17T22:45:42.297Z,100202.94
2023-03-17T22:48:11.631Z,100202.06
2023-03-17T22:50:39.308Z,100210.00
2023-03-17T22:53:06.958Z,100211.75
2023-03-17T22:55:34.562Z,100217.97
2023-03-17T22:58:02.155Z,100212.66
2023-03-17T23:00:31.257Z,100205.59
2023-03-17T23:02:59.321Z,100199.44
2023-03-17T23:05:28.435Z,100207.38
2023-03-17T23:07:56.093Z,100220.59
2023-03-17T23:10:24.718Z,100222.34
2023-03-17T23:12:53.100Z,100210.91
2023-03-17T23:15:21.333Z,100213.53
2023-03-17T23:17:49.084Z,100221.47
2023-03-17T23:20:17.568Z,100219.72
2023-03-17T23:22:47.017Z,100202.97
2023-03-17T23:25:14.726Z,100202.09
2023-03-17T23:27:42.567Z,100221.47
2023-03-17T23:30:12.923Z,100218.81
2023-03-17T23:32:40.820Z,100217.94
2023-03-17T23:35:10.149Z,100216.19
2023-03-17T23:37:38.013Z,100214.41
2023-03-17T23:40:09.297Z,100225.88
2023-03-17T23:42:37.264Z,100217.06
2023-03-17T23:45:05.471Z,100217.94
2023-03-17T23:47:33.103Z,100220.56
2023-03-17T23:50:00.858Z,100221.47
2023-03-17T23:52:28.574Z,100219.69
2023-03-17T23:54:56.241Z,100222.31
2023-03-17T23:57:25.550Z,100221.44
2023-03-17T23:59:53.360Z,100231.16
